createdAt,value
2023-04-14T00:00:10.028Z,95399.78
2023-04-14T00:02:38.482Z,95400.03
2023-04-14T00:05:08.315Z,95398.63
2023-04-14T00:07:36.677Z,95397.13
2023-04-14T00:10:05.345Z,95395.72
2023-04-14T00:12:34.992Z,95392.69
2023-04-14T00:15:03.346Z,95403.41
2023-04-14T00:17:32.392Z,95402.53
2023-04-14T00:20:00.782Z,95397.56
2023-04-14T00:22:29.072Z,95403.66
2023-04-14T00:24:57.471Z,95393.44
2023-04-14T00:27:25.875Z,95407.28
2023-04-14T00:29:55.548Z,95407.09
2023-04-14T00:32:23.843Z,95395.78
2023-04-14T00:34:52.129Z,95392.25
2023-04-14T00:37:20.493Z,95381.19
2023-04-14T00:39:48.723Z,95382.75
2023-04-14T00:42:17.014Z,95385.94
2023-04-14T00:44:47.369Z,95373.50
2023-04-14T00:47:17.313Z,95384.16
2023-04-14T00:49:45.981Z,95375.63
2023-04-14T00:52:14.218Z,95378.13
2023-04-14T00:54:42.500Z,95380.22
2023-04-14T00:57:10.988Z,95381.06
2023-04-14T00:59:39.342Z,95380.91
2023-04-14T01:02:07.781Z,95389.59
2023-04-14T01:04:51.900Z,95379.78
2023-04-14T01:07:21.844Z,95389.75
2023-04-14T01:09:50.455Z,95379.06
2023-04-14T01:12:26.206Z,95387.31
2023-04-14T01:15:04.536Z,95386.97
2023-04-14T01:17:36.850Z,95395.97
2023-04-14T01:20:14.585Z,95402.16
2023-04-14T01:22:48.515Z,95400.56
2023-04-14T01:25:42.949Z,95393.41
2023-04-14T01:28:17.278Z,95402.47
2023-04-14T01:31:00.867Z,95393.91
2023-04-14T01:33:31.698Z,95400.00
2023-04-14T01:36:02.207Z,95397.81
2023-04-14T01:38:36.018Z,95404.94
2023-04-14T01:41:07.650Z,95396.44
2023-04-14T01:43:39.061Z,95392.81
2023-04-14T01:46:08.723Z,95398.34
2023-04-14T01:48:39.560Z,95385.94
2023-04-14T01:51:08.894Z,95396.44
2023-04-14T01:53:39.081Z,95394.66
2023-04-14T01:56:09.208Z,95395.13
2023-04-14T01:58:38.520Z,95404.22
2023-04-14T02:01:07.922Z,95399.53
2023-04-14T02:03:38.549Z,95394.91
2023-04-14T02:06:07.229Z,95405.66
2023-04-14T02:08:37.457Z,95400.97
2023-04-14T02:11:06.454Z,95390.13
2023-04-14T02:13:36.490Z,95378.81
2023-04-14T02:16:07.409Z,95383.13
2023-04-14T02:18:38.217Z,95373.06
2023-04-14T02:21:07.263Z,95376.22
2023-04-14T02:23:35.602Z,95373.50
2023-04-14T02:26:09.714Z,95372.59
2023-04-14T02:28:43.077Z,95365.59
2023-04-14T02:31:14.247Z,95371.31
2023-04-14T02:33:45.024Z,95364.34
2023-04-14T02:36:17.349Z,95375.09
2023-04-14T02:38:48.046Z,95367.97
2023-04-14T02:41:21.546Z,95362.22
2023-04-14T02:43:52.873Z,95366.97
2023-04-14T02:46:23.227Z,95358.97
2023-04-14T02:48:53.598Z,95355.56
2023-04-14T02:51:22.868Z,95354.22
2023-04-14T02:53:51.594Z,95349.59
2023-04-14T02:56:20.139Z,95349.84
2023-04-14T02:58:49.162Z,95333.34
2023-04-14T03:01:17.661Z,95336.25
2023-04-14T03:03:46.076Z,95349.75
2023-04-14T03:06:16.630Z,95340.59
2023-04-14T03:08:45.475Z,95334.31
2023-04-14T03:11:15.479Z,95341.56
2023-04-14T03:13:44.755Z,95329.66
2023-04-14T03:16:13.416Z,95336.00
2023-04-14T03:18:42.091Z,95329.69
2023-04-14T03:21:10.542Z,95340.56
2023-04-14T03:23:41.196Z,95335.81
2023-04-14T03:26:09.317Z,95332.47
2023-04-14T03:28:38.690Z,95341.50
2023-04-14T03:31:08.953Z,95335.69
2023-04-14T03:33:38.737Z,95327.34
2023-04-14T03:36:08.554Z,95331.84
2023-04-14T03:38:37.119Z,95326.16
2023-04-14T03:41:09.663Z,95326.41
2023-04-14T03:43:38.777Z,95321.41
2023-04-14T03:46:07.587Z,95324.75
2023-04-14T03:48:42.391Z,95330.78
2023-04-14T03:51:13.191Z,95331.97
2023-04-14T03:53:42.148Z,95333.22
2023-04-14T03:56:13.339Z,95338.31
2023-04-14T03:58:42.284Z,95338.97
2023-04-14T04:01:10.756Z,95347.91
2023-04-14T04:03:41.024Z,95352.81
2023-04-14T04:06:09.697Z,95355.13
2023-04-14T04:08:38.481Z,95358.78
2023-04-14T04:11:07.200Z,95354.56
2023-04-14T04:13:38.050Z,95354.50
2023-04-14T04:16:08.470Z,95355.44
2023-04-14T04:18:39.184Z,95345.00
2023-04-14T04:21:07.319Z,95345.97
2023-04-14T04:23:36.070Z,95345.75
2023-04-14T04:26:04.414Z,95343.94
2023-04-14T04:28:32.901Z,95339.44
2023-04-14T04:31:06.293Z,95345.22
2023-04-14T04:33:35.610Z,95350.03
2023-04-14T04:36:05.378Z,95346.63
2023-04-14T04:38:33.689Z,95346.19
2023-04-14T04:41:02.007Z,95349.50
2023-04-14T04:43:30.304Z,95350.53
2023-04-14T04:46:15.493Z,95351.66
2023-04-14T04:48:43.763Z,95361.31
2023-04-14T04:51:11.977Z,95355.63
2023-04-14T04:53:40.304Z,95358.25
2023-04-14T04:56:09.276Z,95362.59
2023-04-14T04:58:37.598Z,95368.91
2023-04-14T05:01:10.423Z,95373.00
2023-04-14T05:03:39.062Z,95364.78
2023-04-14T05:06:07.546Z,95367.94
2023-04-14T05:08:36.014Z,95376.03
2023-04-14T05:11:04.365Z,95379.97
2023-04-14T05:13:32.981Z,95385.69
2023-04-14T05:16:05.445Z,95385.50
2023-04-14T05:18:36.346Z,95388.31
2023-04-14T05:21:04.936Z,95388.53
2023-04-14T05:23:34.266Z,95393.44
2023-04-14T05:26:22.394Z,95387.31
2023-04-14T05:28:50.890Z,95393.66
2023-04-14T05:31:20.196Z,95394.06
2023-04-14T05:33:49.860Z,95403.72
2023-04-14T05:36:18.142Z,95392.59
2023-04-14T05:38:46.549Z,95392.22
2023-04-14T05:41:14.772Z,95381.81
2023-04-14T05:43:43.035Z,95390.72
2023-04-14T05:46:11.341Z,95381.09
2023-04-14T05:48:39.747Z,95389.31
2023-04-14T05:51:09.348Z,95389.19
2023-04-14T05:53:37.668Z,95371.69
2023-04-14T05:56:06.496Z,95384.88
2023-04-14T05:58:34.724Z,95385.47
2023-04-14T06:01:04.028Z,95386.63
2023-04-14T06:03:32.879Z,95390.84
2023-04-14T06:06:01.270Z,95390.03
2023-04-14T06:08:31.329Z,95389.38
2023-04-14T06:10:59.647Z,95386.09
2023-04-14T06:13:31.159Z,95392.66
2023-04-14T06:16:00.870Z,95400.38
2023-04-14T06:18:29.196Z,95391.88
2023-04-14T06:20:57.450Z,95395.38
2023-04-14T06:23:26.805Z,95390.34
2023-04-14T06:25:57.866Z,95395.41
2023-04-14T06:28:26.564Z,95408.97
2023-04-14T06:30:54.990Z,95400.16
2023-04-14T06:33:23.886Z,95405.56
2023-04-14T06:35:52.156Z,95407.19
2023-04-14T06:38:20.725Z,95400.84
2023-04-14T06:40:50.293Z,95413.22
2023-04-14T06:43:21.520Z,95405.13
2023-04-14T06:45:50.994Z,95412.28
2023-04-14T06:48:19.462Z,95397.34
2023-04-14T06:50:54.669Z,95412.19
2023-04-14T06:53:23.069Z,95401.63
2023-04-14T06:55:59.003Z,95393.66
2023-04-14T06:58:29.750Z,95390.28
2023-04-14T07:00:58.412Z,95396.88
2023-04-14T07:03:27.503Z,95382.63
2023-04-14T07:05:55.853Z,95378.91
2023-04-14T07:08:24.116Z,95381.00
2023-04-14T07:11:00.501Z,95381.50
2023-04-14T07:13:30.519Z,95385.34
2023-04-14T07:15:59.343Z,95378.72
2023-04-14T07:18:27.773Z,95384.09
2023-04-14T07:20:56.344Z,95386.78
2023-04-14T07:23:24.682Z,95392.28
2023-04-14T07:25:53.503Z,95394.56
2023-04-14T07:28:22.070Z,95397.84
2023-04-14T07:30:52.699Z,95395.19
2023-04-14T07:33:22.364Z,95394.53
2023-04-14T07:36:01.318Z,95393.50
2023-04-14T07:38:31.108Z,95386.38
2023-04-14T07:40:59.387Z,95387.69
2023-04-14T07:43:27.920Z,95394.59
2023-04-14T07:45:57.675Z,95391.50
2023-04-14T07:48:26.136Z,95387.44
2023-04-14T07:50:54.974Z,95393.75
2023-04-14T07:53:23.342Z,95398.31
2023-04-14T07:55:51.569Z,95389.31
2023-04-14T07:58:19.923Z,95397.06
2023-04-14T08:00:48.182Z,95395.81
2023-04-14T08:03:18.266Z,95395.69
2023-04-14T08:05:46.740Z,95394.84
2023-04-14T08:08:15.468Z,95392.13
2023-04-14T08:10:43.767Z,95397.91
2023-04-14T08:13:12.035Z,95408.16
2023-04-14T08:15:40.374Z,95407.53
2023-04-14T08:18:08.706Z,95421.28
2023-04-14T08:20:38.580Z,95432.09
2023-04-14T08:23:06.815Z,95429.44
2023-04-14T08:25:35.150Z,95428.41
2023-04-14T08:28:03.540Z,95425.75
2023-04-14T08:30:32.264Z,95418.00
2023-04-14T08:33:00.570Z,95420.25
2023-04-14T08:35:35.509Z,95413.31
2023-04-14T08:38:10.109Z,95419.03
2023-04-14T08:40:40.437Z,95424.34
2023-04-14T08:43:08.933Z,95421.84
2023-04-14T08:45:37.564Z,95427.59
2023-04-14T08:48:06.789Z,95432.34
2023-04-14T08:50:39.004Z,95431.88
2023-04-14T08:53:11.052Z,95439.50
2023-04-14T08:55:41.639Z,95436.53
2023-04-14T08:58:10.817Z,95440.31
2023-04-14T09:00:40.004Z,95434.81
2023-04-14T09:03:09.441Z,95439.91
2023-04-14T09:05:38.323Z,95432.53
2023-04-14T09:08:06.819Z,95419.78
2023-04-14T09:10:37.047Z,95416.94
2023-04-14T09:13:06.663Z,95412.69
2023-04-14T09:15:34.963Z,95400.59
2023-04-14T09:18:03.414Z,95385.50
2023-04-14T09:20:37.400Z,95412.56
2023-04-14T09:23:08.840Z,95427.84
2023-04-14T09:25:39.392Z,95427.81
2023-04-14T09:28:07.740Z,95412.69
2023-04-14T09:30:36.458Z,95405.03
2023-04-14T09:33:08.116Z,95405.88
2023-04-14T09:35:45.161Z,95398.69
2023-04-14T09:38:13.428Z,95394.09
2023-04-14T09:40:45.038Z,95393.41
2023-04-14T09:43:26.979Z,95399.03
2023-04-14T09:45:56.309Z,95404.88
2023-04-14T09:48:25.729Z,95402.09
2023-04-14T09:50:58.693Z,95405.06
2023-04-14T09:53:28.432Z,95409.38
2023-04-14T09:55:59.721Z,95434.97
2023-04-14T09:58:31.237Z,95434.78
2023-04-14T10:01:00.517Z,95432.94
2023-04-14T10:03:38.904Z,95427.75
2023-04-14T10:06:10.955Z,95432.03
2023-04-14T10:08:41.051Z,95428.03
2023-04-14T10:11:17.904Z,95426.31
2023-04-14T10:13:46.922Z,95423.19
2023-04-14T10:16:15.657Z,95414.03
2023-04-14T10:18:44.223Z,95419.44
2023-04-14T10:21:12.589Z,95410.09
2023-04-14T10:23:41.860Z,95410.91
2023-04-14T10:26:11.961Z,95407.59
2023-04-14T10:28:44.657Z,95426.63
2023-04-14T10:31:16.232Z,95422.06
2023-04-14T10:33:44.634Z,95414.69
2023-04-14T10:36:13.325Z,95415.03
2023-04-14T10:38:43.500Z,95410.09
2023-04-14T10:41:12.697Z,95410.34
2023-04-14T10:43:42.358Z,95403.50
2023-04-14T10:46:11.356Z,95403.22
2023-04-14T10:48:41.328Z,95394.59
2023-04-14T10:51:11.743Z,95376.66
2023-04-14T10:53:45.059Z,95395.28
2023-04-14T10:56:13.552Z,95383.16
2023-04-14T10:58:45.553Z,95379.72
2023-04-14T11:01:27.113Z,95380.50
2023-04-14T11:03:56.352Z,95380.06
2023-04-14T11:06:50.125Z,95367.97
2023-04-14T11:09:25.476Z,95350.75
2023-04-14T11:11:55.608Z,95353.88
2023-04-14T11:14:28.760Z,95336.78
2023-04-14T11:17:04.126Z,95329.22
2023-04-14T11:19:34.177Z,95329.56
2023-04-14T11:22:02.451Z,95330.72
2023-04-14T11:24:30.744Z,95326.56
2023-04-14T11:27:00.138Z,95317.16
2023-04-14T11:29:29.734Z,95311.59
2023-04-14T11:32:05.789Z,95314.63
2023-04-14T11:34:35.051Z,95329.28
2023-04-14T11:37:04.274Z,95325.56
2023-04-14T11:39:33.061Z,95320.38
2023-04-14T11:42:01.320Z,95326.53
2023-04-14T11:44:30.955Z,95328.13
2023-04-14T11:46:59.261Z,95329.66
2023-04-14T11:49:36.653Z,95307.63
2023-04-14T11:52:08.841Z,95307.44
2023-04-14T11:54:37.970Z,95294.06
2023-04-14T11:57:12.737Z,95302.75
2023-04-14T11:59:44.050Z,95303.03
2023-04-14T12:02:17.546Z,95299.94
2023-04-14T12:04:46.902Z,95302.50
2023-04-14T12:07:17.071Z,95304.25
2023-04-14T12:09:46.899Z,95309.16
2023-04-14T12:12:17.213Z,95299.56
2023-04-14T12:14:48.036Z,95300.25
2023-04-14T12:17:18.819Z,95306.06
2023-04-14T12:19:47.306Z,95299.38
2023-04-14T12:22:16.164Z,95297.78
2023-04-14T12:24:44.840Z,95295.16
2023-04-14T12:27:15.096Z,95291.31
2023-04-14T12:29:45.199Z,95278.69
2023-04-14T12:32:15.422Z,95284.16
2023-04-14T12:34:54.299Z,95291.63
2023-04-14T12:37:26.035Z,95278.13
2023-04-14T12:39:58.154Z,95267.78
2023-04-14T12:42:26.710Z,95265.88
2023-04-14T12:44:56.252Z,95264.31
2023-04-14T12:47:29.920Z,95260.31
2023-04-14T12:49:59.375Z,95261.72
2023-04-14T12:52:35.567Z,95259.16
2023-04-14T12:55:04.824Z,95254.03
2023-04-14T12:57:33.631Z,95258.78
2023-04-14T13:00:02.362Z,95255.84
2023-04-14T13:05:19.116Z,95256.03
2023-04-14T13:07:47.419Z,95245.75
2023-04-14T13:10:15.706Z,95243.72
2023-04-14T13:12:44.077Z,95239.94
2023-04-14T13:16:10.442Z,95240.53
2023-04-14T13:18:03.219Z,95240.34
2023-04-14T13:20:31.716Z,95230.72
2023-04-14T13:23:00.053Z,95236.34
2023-04-14T13:25:28.388Z,95232.00
2023-04-14T13:27:56.770Z,95237.41
2023-04-14T13:30:25.034Z,95238.84
2023-04-14T13:32:53.530Z,95233.91
2023-04-14T13:35:23.322Z,95240.97
2023-04-14T13:37:51.565Z,95234.88
2023-04-14T13:40:19.826Z,95238.06
2023-04-14T13:42:48.093Z,95236.53
2023-04-14T13:45:17.114Z,95230.59
2023-04-14T13:47:48.291Z,95229.38
2023-04-14T13:50:17.698Z,95235.22
2023-04-14T13:52:47.374Z,95233.53
2023-04-14T13:55:15.673Z,95231.72
2023-04-14T13:57:43.876Z,95250.16
2023-04-14T14:00:13.452Z,95275.00
2023-04-14T14:02:41.914Z,95276.25
2023-04-14T14:05:11.750Z,95274.38
2023-04-14T14:07:40.191Z,95277.91
2023-04-14T14:10:10.988Z,95271.97
2023-04-14T14:12:39.391Z,95262.50
2023-04-14T14:15:08.840Z,95267.75
2023-04-14T14:17:38.089Z,95259.31
2023-04-14T14:20:07.631Z,95256.88
2023-04-14T14:22:35.903Z,95263.84
2023-04-14T14:25:18.502Z,95259.72
2023-04-14T14:27:51.924Z,95267.50
2023-04-14T14:30:20.441Z,95251.06
2023-04-14T14:32:48.712Z,95248.72
2023-04-14T14:35:17.300Z,95252.75
2023-04-14T14:37:45.971Z,95253.09
2023-04-14T14:40:14.333Z,95257.72
2023-04-14T14:42:42.644Z,95251.19
2023-04-14T14:45:13.428Z,95244.94
2023-04-14T14:47:41.998Z,95238.25
2023-04-14T14:50:10.680Z,95241.09
2023-04-14T14:52:39.012Z,95236.25
2023-04-14T14:55:08.478Z,95232.97
2023-04-14T14:57:36.671Z,95234.88
2023-04-14T15:00:07.732Z,95234.19
2023-04-14T15:02:38.545Z,95245.81
2023-04-14T15:05:08.271Z,95237.16
2023-04-14T15:07:36.552Z,95246.84
2023-04-14T15:10:05.786Z,95241.84
2023-04-14T15:12:34.354Z,95234.81
2023-04-14T15:15:02.718Z,95234.97
2023-04-14T15:17:31.525Z,95232.53
2023-04-14T15:20:04.476Z,95230.56
2023-04-14T15:22:32.845Z,95222.75
2023-04-14T15:25:01.084Z,95220.69
2023-04-14T15:27:29.312Z,95234.94
2023-04-14T15:29:57.990Z,95232.31
2023-04-14T15:32:27.528Z,95231.66
2023-04-14T15:34:56.156Z,95234.41
2023-04-14T15:37:26.597Z,95238.09
2023-04-14T15:39:54.891Z,95231.53
2023-04-14T15:42:23.129Z,95227.31
2023-04-14T15:44:51.829Z,95226.88
2023-04-14T15:47:20.140Z,95222.38
2023-04-14T15:49:49.914Z,95227.50
2023-04-14T15:52:20.889Z,95226.25
2023-04-14T15:54:50.463Z,95223.31
2023-04-14T15:57:19.159Z,95228.09
2023-04-14T15:59:47.460Z,95224.94
2023-04-14T16:02:16.099Z,95225.94
2023-04-14T16:04:44.450Z,95227.69
2023-04-14T16:07:12.710Z,95224.75
2023-04-14T16:09:40.944Z,95216.50
2023-04-14T16:12:10.689Z,95223.88
2023-04-14T16:14:38.951Z,95224.97
2023-04-14T16:17:07.260Z,95232.19
2023-04-14T16:19:35.588Z,95217.91
2023-04-14T16:22:03.913Z,95221.47
2023-04-14T16:24:32.232Z,95224.63
2023-04-14T16:27:01.089Z,95216.97
2023-04-14T16:29:30.832Z,95216.84
2023-04-14T16:31:59.080Z,95218.75
2023-04-14T16:34:27.324Z,95220.59
2023-04-14T16:36:55.718Z,95219.94
2023-04-14T16:39:23.979Z,95221.38
2023-04-14T16:41:52.672Z,95226.69
2023-04-14T16:44:21.445Z,95227.53
2023-04-14T16:46:51.632Z,95230.09
2023-04-14T16:49:20.156Z,95225.28
2023-04-14T16:51:48.496Z,95224.13
2023-04-14T16:54:17.174Z,95218.16
2023-04-14T16:56:45.522Z,95220.41
2023-04-14T16:59:13.885Z,95226.28
2023-04-14T17:01:42.285Z,95219.78
2023-04-14T17:04:12.427Z,95219.97
2023-04-14T17:06:40.908Z,95219.38
2023-04-14T17:09:09.287Z,95224.63
2023-04-14T17:11:37.520Z,95231.19
2023-04-14T17:14:06.521Z,95229.69
2023-04-14T17:16:35.006Z,95228.22
2023-04-14T17:19:04.466Z,95237.81
2023-04-14T17:21:34.094Z,95241.84
2023-04-14T17:24:03.221Z,95247.94
2023-04-14T17:26:31.588Z,95241.81
2023-04-14T17:28:59.968Z,95266.53
2023-04-14T17:31:28.524Z,95275.66
2023-04-14T17:33:57.504Z,95285.09
2023-04-14T17:36:25.718Z,95272.34
2023-04-14T17:38:55.573Z,95276.53
2023-04-14T17:41:24.190Z,95275.44
2023-04-14T17:43:55.062Z,95269.78
2023-04-14T17:46:33.547Z,95268.00
2023-04-14T17:49:02.774Z,95262.66
2023-04-14T17:51:32.276Z,95267.97
2023-04-14T17:54:02.459Z,95262.81
2023-04-14T17:56:31.845Z,95268.03
2023-04-14T17:59:00.592Z,95267.22
2023-04-14T18:01:28.875Z,95271.22
2023-04-14T18:03:58.307Z,95276.56
2023-04-14T18:06:26.673Z,95266.25
2023-04-14T18:08:55.001Z,95272.44
2023-04-14T18:11:24.582Z,95267.47
2023-04-14T18:13:53.743Z,95276.06
2023-04-14T18:16:22.214Z,95277.09
2023-04-14T18:18:50.820Z,95292.59
2023-04-14T18:21:19.336Z,95293.97
2023-04-14T18:24:47.916Z,95292.19
2023-04-14T18:26:37.191Z,95287.38
2023-04-14T18:29:05.818Z,95295.69
2023-04-14T18:31:34.197Z,95296.47
2023-04-14T18:34:04.317Z,95295.38
2023-04-14T18:36:33.444Z,95291.22
2023-04-14T18:39:02.301Z,95295.97
2023-04-14T18:41:30.799Z,95300.28
2023-04-14T18:44:00.426Z,95297.25
2023-04-14T18:46:28.744Z,95308.41
2023-04-14T18:48:57.074Z,95312.31
2023-04-14T18:51:25.892Z,95304.97
2023-04-14T18:53:54.397Z,95312.25
2023-04-14T18:56:22.619Z,95311.19
2023-04-14T18:58:51.881Z,95318.47
2023-04-14T19:01:21.575Z,95323.44
2023-04-14T19:03:49.978Z,95317.06
2023-04-14T19:06:18.243Z,95318.66
2023-04-14T19:08:46.563Z,95319.44
2023-04-14T19:11:14.883Z,95323.75
2023-04-14T19:13:43.149Z,95311.94
2023-04-14T19:16:12.534Z,95312.25
2023-04-14T19:18:42.876Z,95318.09
2023-04-14T19:21:11.170Z,95320.09
2023-04-14T19:23:40.959Z,95317.66
2023-04-14T19:26:11.493Z,95319.69
2023-04-14T19:28:42.379Z,95320.00
2023-04-14T19:31:11.001Z,95309.94
2023-04-14T19:33:39.297Z,95314.59
2023-04-14T19:36:14.153Z,95304.78
2023-04-14T19:38:42.555Z,95306.34
2023-04-14T19:41:10.888Z,95310.44
2023-04-14T19:43:39.151Z,95315.47
2023-04-14T19:46:09.453Z,95317.81
2023-04-14T19:48:38.992Z,95322.31
2023-04-14T19:51:07.329Z,95320.03
2023-04-14T19:53:37.420Z,95318.50
2023-04-14T19:56:07.285Z,95313.44
2023-04-14T19:58:36.410Z,95310.13
2023-04-14T20:01:05.709Z,95299.56
2023-04-14T20:03:34.780Z,95308.22
2023-04-14T20:06:03.354Z,95313.09
2023-04-14T20:08:32.377Z,95300.47
2023-04-14T20:11:02.042Z,95305.88
2023-04-14T20:13:32.132Z,95300.44
2023-04-14T20:16:01.461Z,95293.91
2023-04-14T20:18:30.048Z,95295.91
2023-04-14T20:20:59.059Z,95289.31
2023-04-14T20:23:27.870Z,95288.13
2023-04-14T20:25:56.772Z,95290.00
2023-04-14T20:28:26.776Z,95294.69
2023-04-14T20:30:56.007Z,95285.59
2023-04-14T20:33:24.870Z,95290.56
2023-04-14T20:35:54.217Z,95280.75
2023-04-14T20:38:23.558Z,95280.28
2023-04-14T20:40:52.012Z,95280.50
2023-04-14T20:43:20.348Z,95270.00
2023-04-14T20:45:52.532Z,95268.84
2023-04-14T20:48:20.905Z,95283.47
2023-04-14T20:50:50.039Z,95291.34
2023-04-14T20:53:22.088Z,95275.44
2023-04-14T20:55:51.092Z,95283.28
2023-04-14T20:58:19.407Z,95284.16
2023-04-14T21:00:47.702Z,95279.38
2023-04-14T21:03:17.458Z,95280.00
2023-04-14T21:05:46.272Z,95281.13
2023-04-14T21:08:14.544Z,95288.66
2023-04-14T21:11:16.353Z,95288.47
2023-04-14T21:15:24.879Z,95284.88
2023-04-14T21:16:19.337Z,95285.78
2023-04-14T21:18:48.963Z,95280.28
2023-04-14T21:21:17.926Z,95281.25
2023-04-14T21:23:46.258Z,95287.69
2023-04-14T21:26:14.588Z,95281.84
2023-04-14T21:28:43.011Z,95284.25
2023-04-14T21:31:11.526Z,95279.25
2023-04-14T21:33:41.621Z,95276.81
2023-04-14T21:36:11.330Z,95277.06
2023-04-14T21:38:39.706Z,95267.91
2023-04-14T21:41:09.450Z,95267.63
2023-04-14T21:43:38.579Z,95277.84
2023-04-14T21:46:06.893Z,95278.56
2023-04-14T21:48:35.322Z,95283.84
2023-04-14T21:51:04.509Z,95277.41
2023-04-14T21:53:36.181Z,95274.84
2023-04-14T21:56:10.298Z,95272.06
2023-04-14T21:58:40.280Z,95283.00
2023-04-14T22:01:09.668Z,95275.56
2023-04-14T22:03:40.611Z,95278.19
2023-04-14T22:06:09.999Z,95278.91
2023-04-14T22:08:40.237Z,95273.00
2023-04-14T22:11:08.705Z,95274.00
2023-04-14T22:13:37.128Z,95267.25
2023-04-14T22:16:05.728Z,95270.16
2023-04-14T22:18:35.756Z,95268.25
2023-04-14T22:21:04.882Z,95266.22
2023-04-14T22:23:33.222Z,95256.38
2023-04-14T22:26:03.572Z,95252.69
2023-04-14T22:28:31.838Z,95250.72
2023-04-14T22:31:00.256Z,95249.91
2023-04-14T22:33:28.575Z,95245.41
2023-04-14T22:35:56.869Z,95241.69
2023-04-14T22:38:25.175Z,95242.19
2023-04-14T22:40:53.456Z,95236.63
2023-04-14T22:43:23.128Z,95243.34
2023-04-14T22:45:51.680Z,95243.59
2023-04-14T22:48:19.938Z,95245.44
2023-04-14T22:50:48.169Z,95251.13
2023-04-14T22:53:16.466Z,95244.00
2023-04-14T22:55:45.107Z,95248.00
2023-04-14T22:58:16.844Z,95243.00
2023-04-14T23:00:46.927Z,95253.16
2023-04-14T23:03:15.555Z,95251.31
2023-04-14T23:05:44.708Z,95254.00
2023-04-14T23:08:13.051Z,95245.63
2023-04-14T23:10:41.321Z,95253.22
2023-04-14T23:13:09.587Z,95256.69
2023-04-14T23:15:37.923Z,95255.06
2023-04-14T23:18:07.522Z,95251.53
2023-04-14T23:20:36.425Z,95254.66
2023-04-14T23:23:05.774Z,95260.16
2023-04-14T23:25:34.006Z,95252.97
2023-04-14T23:28:02.255Z,95252.97
2023-04-14T23:30:30.471Z,95253.19
2023-04-14T23:32:58.774Z,95250.53
2023-04-14T23:35:29.055Z,95252.13
2023-04-14T23:38:02.259Z,95247.66
2023-04-14T23:40:31.754Z,95250.97
2023-04-14T23:43:00.063Z,95248.50
2023-04-14T23:45:28.523Z,95247.63
2023-04-14T23:47:58.545Z,95247.03
2023-04-14T23:50:58.931Z,95243.16
2023-04-14T23:53:16.560Z,95235.59
2023-04-14T23:55:44.866Z,95239.69
2023-04-14T23:58:13.885Z,95236.84
